createdAt,value
2018-07-05T00:00:58.638Z,5.17
2018-07-05T00:03:32.360Z,5.10
2018-07-05T00:06:06.146Z,5.00
2018-07-05T00:08:39.716Z,4.57
2018-07-05T00:11:13.531Z,4.60
2018-07-05T00:13:47.131Z,5.27
2018-07-05T00:16:20.815Z,4.83
2018-07-05T00:18:54.534Z,6.40
2018-07-05T00:21:28.266Z,5.23
2018-07-05T00:24:01.884Z,4.63
2018-07-05T00:26:35.565Z,5.23
2018-07-05T00:29:09.395Z,5.30
2018-07-05T00:31:43.020Z,6.30
2018-07-05T00:34:16.784Z,5.60
2018-07-05T00:36:50.424Z,5.47
2018-07-05T00:39:23.983Z,5.70
2018-07-05T00:41:57.786Z,6.60
2018-07-05T00:44:31.407Z,7.20
2018-07-05T00:47:05.159Z,7.13
2018-07-05T00:49:38.822Z,7.03
2018-07-05T00:52:12.482Z,6.37
2018-07-05T00:54:46.110Z,5.40
2018-07-05T00:57:19.763Z,6.47
2018-07-05T00:59:53.519Z,5.37
2018-07-05T01:02:27.303Z,6.00
2018-07-05T01:05:00.927Z,5.23
2018-07-05T01:07:34.578Z,5.33
2018-07-05T01:10:08.174Z,6.60
2018-07-05T01:12:42.006Z,6.37
2018-07-05T01:15:15.763Z,5.40
2018-07-05T01:17:49.322Z,6.07
2018-07-05T01:20:22.858Z,6.23
2018-07-05T01:22:56.596Z,5.53
2018-07-05T01:25:30.248Z,6.47
2018-07-05T01:28:03.907Z,6.47
2018-07-05T01:30:37.565Z,6.30
2018-07-05T01:33:11.305Z,7.40
2018-07-05T01:35:45.018Z,6.97
2018-07-05T01:38:18.790Z,8.13
2018-07-05T01:40:52.394Z,7.70
2018-07-05T01:43:26.036Z,6.47
2018-07-05T01:45:59.573Z,5.60
2018-07-05T01:48:33.319Z,6.20
2018-07-05T01:51:07.114Z,5.73
2018-07-05T01:53:40.811Z,6.30
2018-07-05T01:56:14.490Z,6.90
2018-07-05T01:58:48.286Z,5.67
2018-07-05T02:01:21.893Z,6.80
2018-07-05T02:03:55.667Z,7.17
2018-07-05T02:06:29.510Z,6.60
2018-07-05T02:09:03.330Z,7.13
2018-07-05T02:11:36.870Z,8.17
2018-07-05T02:14:10.592Z,7.37
2018-07-05T02:16:44.258Z,6.70
2018-07-05T02:19:17.798Z,7.87
2018-07-05T02:21:51.455Z,6.83
2018-07-05T02:24:25.120Z,7.73
2018-07-05T02:26:58.871Z,7.23
2018-07-05T02:29:32.685Z,7.87
2018-07-05T02:32:06.382Z,7.67
2018-07-05T02:34:39.991Z,8.30
2018-07-05T02:37:19.369Z,9.20
2018-07-05T02:39:53.051Z,9.50
2018-07-05T02:42:26.866Z,9.50
2018-07-05T02:45:00.392Z,8.93
2018-07-05T02:47:34.201Z,9.50
2018-07-05T02:50:07.821Z,9.60
2018-07-05T02:52:41.611Z,9.87
2018-07-05T02:55:15.146Z,8.77
2018-07-05T02:57:48.883Z,9.63
2018-07-05T03:00:22.634Z,7.50
2018-07-05T03:02:56.302Z,8.37
2018-07-05T03:05:30.011Z,7.60
2018-07-05T03:08:03.658Z,8.30
2018-07-05T03:10:37.227Z,7.43
2018-07-05T03:13:10.771Z,6.70
2018-07-05T03:15:44.494Z,8.73
2018-07-05T03:18:18.179Z,8.97
2018-07-05T03:20:51.903Z,9.10
2018-07-05T03:23:25.550Z,8.10
2018-07-05T03:25:59.153Z,10.33
2018-07-05T03:28:32.980Z,8.40
2018-07-05T03:31:06.626Z,9.10
2018-07-05T03:33:40.421Z,10.40
2018-07-05T03:36:14.085Z,9.10
2018-07-05T03:38:47.870Z,9.23
2018-07-05T03:41:21.479Z,9.73
2018-07-05T03:43:55.191Z,9.30
2018-07-05T03:46:28.666Z,8.10
2018-07-05T03:49:02.311Z,9.10
2018-07-05T03:51:35.958Z,9.03
2018-07-05T03:54:09.526Z,8.10
2018-07-05T03:56:43.089Z,8.00
2018-07-05T03:59:16.750Z,8.13
2018-07-05T04:01:50.479Z,7.77
2018-07-05T04:04:24.053Z,7.33
2018-07-05T04:06:57.767Z,7.33
2018-07-05T04:09:31.405Z,6.60
2018-07-05T04:12:05.149Z,6.70
2018-07-05T04:14:38.789Z,7.17
2018-07-05T04:17:12.344Z,6.83
2018-07-05T04:19:49.495Z,5.60
2018-07-05T04:22:23.165Z,7.10
2018-07-05T04:24:56.850Z,6.03
2018-07-05T04:27:30.354Z,6.40
2018-07-05T04:30:04.065Z,6.70
2018-07-05T04:32:37.718Z,7.40
2018-07-05T04:35:11.374Z,7.10
2018-07-05T04:37:44.998Z,8.33
2018-07-05T04:40:18.573Z,8.60
2018-07-05T04:42:52.430Z,7.70
2018-07-05T04:45:26.062Z,6.70
2018-07-05T04:47:59.726Z,6.20
2018-07-05T04:50:33.174Z,7.80
2018-07-05T04:53:06.803Z,7.33
2018-07-05T04:55:40.516Z,6.77
2018-07-05T04:58:14.279Z,7.90
2018-07-05T05:00:47.972Z,7.40
2018-07-05T05:03:21.720Z,6.47
2018-07-05T05:05:55.472Z,7.00
2018-07-05T05:08:29.122Z,6.50
2018-07-05T05:11:02.738Z,7.47
2018-07-05T05:13:36.463Z,7.10
2018-07-05T05:16:10.138Z,6.30
2018-07-05T05:18:43.882Z,7.57
2018-07-05T05:21:17.600Z,8.03
2018-07-05T05:23:51.398Z,7.90
2018-07-05T05:26:24.927Z,7.00
2018-07-05T05:28:58.687Z,7.53
2018-07-05T05:31:32.259Z,7.73
2018-07-05T05:34:05.874Z,6.80
2018-07-05T05:36:39.410Z,7.83
2018-07-05T05:39:12.897Z,6.30
2018-07-05T05:41:46.506Z,6.60
2018-07-05T05:44:20.188Z,6.17
2018-07-05T05:46:53.831Z,7.37
2018-07-05T05:49:27.552Z,6.67
2018-07-05T05:52:01.200Z,7.50
2018-07-05T05:54:34.846Z,6.00
2018-07-05T05:57:08.354Z,6.03
2018-07-05T05:59:41.903Z,5.77
2018-07-05T06:02:15.607Z,6.90
2018-07-05T06:04:49.266Z,4.97
2018-07-05T06:07:22.729Z,6.40
2018-07-05T06:09:56.771Z,4.90
2018-07-05T06:12:30.410Z,4.90
2018-07-05T06:15:04.016Z,5.10
2018-07-05T06:17:38.447Z,4.97
2018-07-05T06:20:12.123Z,4.57
2018-07-05T06:22:45.647Z,3.90
2018-07-05T06:25:19.188Z,4.80
2018-07-05T06:27:52.802Z,3.67
2018-07-05T06:30:26.600Z,3.70
2018-07-05T06:33:00.105Z,3.97
2018-07-05T06:35:33.870Z,4.17
2018-07-05T06:38:07.417Z,4.13
2018-07-05T06:40:40.998Z,4.23
2018-07-05T06:43:14.832Z,3.10
2018-07-05T06:45:48.387Z,3.13
2018-07-05T06:48:22.033Z,3.90
2018-07-05T06:51:01.714Z,4.83
2018-07-05T06:53:41.300Z,4.23
2018-07-05T06:56:20.899Z,4.23
2018-07-05T06:59:00.654Z,3.53
2018-07-05T07:01:40.340Z,4.50
2018-07-05T07:04:19.950Z,4.53
2018-07-05T07:06:59.623Z,4.97
2018-07-05T07:09:33.357Z,4.70
2018-07-05T07:12:12.943Z,4.63
2018-07-05T07:14:52.606Z,4.70
2018-07-05T07:17:32.198Z,4.57
2018-07-05T07:20:11.878Z,3.97
2018-07-05T07:22:51.588Z,4.27
2018-07-05T07:25:31.246Z,4.13
2018-07-05T07:28:11.298Z,3.70
2018-07-05T07:30:51.000Z,5.33
2018-07-05T07:33:30.637Z,4.43
2018-07-05T07:36:11.051Z,3.67
2018-07-05T07:38:50.600Z,4.47
2018-07-05T07:41:30.362Z,4.27
2018-07-05T07:43:57.659Z,4.57
2018-07-05T07:46:25.009Z,4.23
2018-07-05T07:48:52.575Z,4.97
2018-07-05T07:51:19.951Z,4.27
2018-07-05T07:53:47.271Z,4.63
2018-07-05T07:56:14.587Z,4.20
2018-07-05T07:58:41.925Z,4.57
2018-07-05T08:01:09.483Z,2.83
2018-07-05T08:03:36.814Z,2.40
2018-07-05T08:06:04.125Z,2.73
2018-07-05T08:08:31.446Z,3.53
2018-07-05T08:10:58.747Z,2.90
2018-07-05T08:13:26.330Z,2.40
2018-07-05T08:15:54.603Z,3.10
2018-07-05T08:18:22.039Z,2.73
2018-07-05T08:20:49.617Z,2.87
2018-07-05T08:23:17.359Z,2.43
2018-07-05T08:25:44.688Z,2.83
2018-07-05T08:28:12.353Z,2.43
2018-07-05T08:30:39.694Z,2.80
2018-07-05T08:33:07.324Z,2.20
2018-07-05T08:35:34.701Z,2.67
2018-07-05T08:38:02.161Z,3.33
2018-07-05T08:40:29.546Z,3.40
2018-07-05T08:42:57.040Z,3.07
2018-07-05T08:45:24.398Z,3.03
2018-07-05T08:47:51.703Z,2.83
2018-07-05T08:50:19.019Z,3.03
2018-07-05T08:52:46.311Z,2.73
2018-07-05T08:55:13.636Z,2.30
2018-07-05T08:57:40.931Z,2.40
2018-07-05T09:00:08.363Z,3.27
2018-07-05T09:02:35.940Z,3.00
2018-07-05T09:05:03.454Z,2.90
2018-07-05T09:07:31.001Z,2.80
2018-07-05T09:09:58.391Z,3.17
2018-07-05T09:12:25.759Z,3.30
2018-07-05T09:14:53.120Z,2.77
2018-07-05T09:17:20.415Z,2.97
2018-07-05T09:19:47.745Z,2.90
2018-07-05T09:22:15.040Z,2.60
2018-07-05T09:24:42.412Z,2.60
2018-07-05T09:27:09.743Z,2.90
2018-07-05T09:29:37.211Z,2.17
2018-07-05T09:32:04.513Z,2.80
2018-07-05T09:34:31.823Z,2.87
2018-07-05T09:36:59.120Z,2.67
2018-07-05T09:39:26.451Z,2.20
2018-07-05T09:41:53.755Z,2.03
2018-07-05T09:44:21.091Z,2.83
2018-07-05T09:46:48.397Z,2.50
2018-07-05T09:49:15.726Z,2.43
2018-07-05T09:51:43.288Z,2.70
2018-07-05T09:54:10.591Z,2.63
2018-07-05T09:56:38.327Z,2.73
2018-07-05T09:59:05.742Z,1.90
2018-07-05T10:01:33.062Z,2.90
2018-07-05T10:04:00.343Z,3.03
2018-07-05T10:06:27.698Z,2.90
2018-07-05T10:08:54.992Z,2.67
2018-07-05T10:11:22.308Z,2.67
2018-07-05T10:13:49.990Z,3.40
2018-07-05T10:16:17.003Z,3.10
2018-07-05T10:18:44.315Z,2.87
2018-07-05T10:21:11.636Z,2.97
2018-07-05T10:23:38.944Z,3.00
2018-07-05T10:26:06.408Z,3.17
2018-07-05T10:28:33.699Z,2.67
2018-07-05T10:31:13.212Z,2.77
2018-07-05T10:33:47.433Z,2.97
2018-07-05T10:36:14.767Z,2.73
2018-07-05T10:38:42.222Z,2.50
2018-07-05T10:41:21.878Z,2.83
2018-07-05T10:44:01.624Z,3.37
2018-07-05T10:46:41.340Z,2.87
2018-07-05T10:49:14.883Z,2.60
2018-07-05T10:51:55.878Z,3.20
2018-07-05T10:54:35.312Z,3.00
2018-07-05T10:57:09.290Z,2.90
2018-07-05T10:59:49.038Z,3.20
2018-07-05T11:02:28.530Z,2.90
2018-07-05T11:05:08.280Z,2.90
2018-07-05T11:07:47.979Z,3.20
2018-07-05T11:10:28.252Z,2.60
2018-07-05T11:13:07.925Z,3.60
2018-07-05T11:15:47.648Z,2.93
2018-07-05T11:18:27.380Z,2.70
2018-07-05T11:21:07.299Z,3.30
2018-07-05T11:23:47.291Z,3.10
2018-07-05T11:26:27.099Z,3.57
2018-07-05T11:29:06.709Z,2.80
2018-07-05T11:31:46.624Z,2.87
2018-07-05T11:34:26.423Z,3.00
2018-07-05T11:37:06.791Z,2.90
2018-07-05T11:39:46.638Z,2.37
2018-07-05T11:42:26.707Z,2.73
2018-07-05T11:45:06.455Z,2.90
2018-07-05T11:47:45.933Z,3.30
2018-07-05T11:50:25.443Z,3.10
2018-07-05T11:53:05.175Z,3.20
2018-07-05T11:55:44.846Z,2.73
2018-07-05T11:58:24.542Z,2.80
2018-07-05T12:01:04.041Z,2.60
2018-07-05T12:03:37.771Z,3.37
2018-07-05T12:06:17.374Z,2.97
2018-07-05T12:08:56.966Z,3.30
2018-07-05T12:11:36.564Z,3.20
2018-07-05T12:14:16.143Z,3.20
2018-07-05T12:16:55.932Z,2.90
2018-07-05T12:19:29.434Z,3.30
2018-07-05T12:22:09.292Z,3.63
2018-07-05T12:24:49.268Z,3.17
2018-07-05T12:27:29.277Z,3.53
2018-07-05T12:30:08.954Z,3.50
2018-07-05T12:32:48.645Z,3.80
2018-07-05T12:35:28.408Z,3.33
2018-07-05T12:38:07.969Z,3.20
2018-07-05T12:40:47.521Z,4.13
2018-07-05T12:43:27.160Z,3.73
2018-07-05T12:46:06.723Z,3.60
2018-07-05T12:48:46.380Z,3.30
2018-07-05T12:51:25.924Z,3.80
2018-07-05T12:54:05.651Z,4.30
2018-07-05T12:56:45.179Z,3.83
2018-07-05T12:59:24.902Z,3.30
2018-07-05T13:02:04.747Z,3.80
2018-07-05T13:04:44.528Z,4.47
2018-07-05T13:07:18.245Z,4.17
2018-07-05T13:09:57.934Z,4.57
2018-07-05T13:12:37.519Z,4.23
2018-07-05T13:15:18.555Z,4.03
2018-07-05T13:18:01.516Z,3.70
2018-07-05T13:20:41.147Z,3.70
2018-07-05T13:23:20.687Z,4.03
2018-07-05T13:26:00.486Z,3.60
2018-07-05T13:28:41.708Z,4.27
2018-07-05T13:31:22.518Z,3.53
2018-07-05T13:34:02.136Z,4.30
2018-07-05T13:36:41.866Z,4.10
2018-07-05T13:39:21.690Z,4.37
2018-07-05T13:42:01.559Z,4.17
2018-07-05T13:44:41.276Z,4.17
2018-07-05T13:47:21.032Z,3.90
2018-07-05T13:50:01.562Z,3.70
2018-07-05T13:52:41.219Z,3.53
2018-07-05T13:55:21.079Z,3.50
2018-07-05T13:58:00.619Z,4.10
2018-07-05T14:00:40.291Z,3.87
2018-07-05T14:03:19.921Z,4.10
2018-07-05T14:05:59.606Z,3.60
2018-07-05T14:08:39.293Z,3.87
2018-07-05T14:11:18.812Z,3.47
2018-07-05T14:13:58.306Z,3.67
2018-07-05T14:16:38.010Z,3.77
2018-07-05T14:19:18.289Z,3.70
2018-07-05T14:21:58.163Z,3.90
2018-07-05T14:24:37.815Z,3.40
2018-07-05T14:27:17.402Z,4.20
2018-07-05T14:29:56.943Z,4.17
2018-07-05T14:32:36.519Z,3.90
2018-07-05T14:35:16.348Z,3.83
2018-07-05T14:37:56.114Z,4.33
2018-07-05T14:40:36.819Z,4.23
2018-07-05T14:43:16.559Z,3.73
2018-07-05T14:45:56.390Z,3.63
2018-07-05T14:48:36.083Z,3.60
2018-07-05T14:51:15.614Z,3.70
2018-07-05T14:53:55.203Z,3.70
2018-07-05T14:56:35.058Z,3.43
2018-07-05T14:59:14.779Z,3.30
2018-07-05T15:01:54.206Z,3.20
2018-07-05T15:04:27.790Z,3.10
2018-07-05T15:07:07.358Z,3.33
2018-07-05T15:09:46.896Z,2.80
2018-07-05T15:12:26.602Z,2.70
2018-07-05T15:15:00.103Z,3.30
2018-07-05T15:17:39.667Z,3.20
2018-07-05T15:20:19.358Z,2.30
2018-07-05T15:22:58.860Z,2.87
2018-07-05T15:25:38.514Z,3.07
2018-07-05T15:28:18.131Z,2.70
2018-07-05T15:30:57.786Z,2.87
2018-07-05T15:33:38.464Z,2.43
2018-07-05T15:36:18.178Z,2.17
2018-07-05T15:38:57.839Z,3.17
2018-07-05T15:41:31.417Z,2.50
2018-07-05T15:44:11.024Z,2.43
2018-07-05T15:46:50.820Z,2.10
2018-07-05T15:49:30.307Z,2.43
2018-07-05T15:52:09.968Z,2.40
2018-07-05T15:54:49.590Z,2.53
2018-07-05T15:57:29.170Z,2.70
2018-07-05T16:00:08.866Z,2.13
2018-07-05T16:02:48.418Z,2.20
2018-07-05T16:05:28.103Z,2.30
2018-07-05T16:08:07.780Z,2.00
2018-07-05T16:10:47.455Z,1.93
2018-07-05T16:13:27.176Z,2.50
2018-07-05T16:16:06.769Z,2.10
2018-07-05T16:18:46.307Z,2.27
2018-07-05T16:21:26.010Z,1.60
2018-07-05T16:24:05.473Z,2.27
2018-07-05T16:26:45.068Z,1.77
2018-07-05T16:29:24.691Z,2.13
2018-07-05T16:32:04.466Z,1.93
2018-07-05T16:34:44.061Z,2.10
2018-07-05T16:37:23.701Z,1.80
2018-07-05T16:40:03.251Z,1.90
2018-07-05T16:42:42.982Z,1.50
2018-07-05T16:45:22.420Z,1.73
2018-07-05T16:48:01.923Z,1.60
2018-07-05T16:50:41.520Z,1.60
2018-07-05T16:53:21.237Z,1.70
2018-07-05T16:56:00.696Z,1.37
2018-07-05T16:58:40.330Z,1.70
2018-07-05T17:01:22.044Z,1.83
2018-07-05T17:03:55.746Z,2.50
2018-07-05T17:06:35.228Z,1.80
2018-07-05T17:09:15.478Z,1.47
2018-07-05T17:11:55.576Z,1.87
2018-07-05T17:14:35.488Z,2.20
2018-07-05T17:17:15.137Z,2.00
2018-07-05T17:19:54.681Z,1.60
2018-07-05T17:22:34.287Z,1.60
2018-07-05T17:25:07.909Z,1.57
2018-07-05T17:27:41.483Z,1.87
2018-07-05T17:30:21.078Z,1.70
2018-07-05T17:33:00.828Z,2.00
2018-07-05T17:35:40.556Z,2.33
2018-07-05T17:38:14.535Z,1.70
2018-07-05T17:40:54.566Z,2.30
2018-07-05T17:43:34.483Z,2.50
2018-07-05T17:46:14.197Z,3.10
2018-07-05T17:48:53.849Z,2.30
2018-07-05T17:51:33.727Z,2.87
2018-07-05T17:54:13.496Z,2.60
2018-07-05T17:56:53.308Z,3.13
2018-07-05T17:59:33.192Z,2.43
2018-07-05T18:02:13.082Z,2.03
2018-07-05T18:04:52.919Z,2.13
2018-07-05T18:07:32.793Z,3.07
2018-07-05T18:10:12.463Z,2.83
2018-07-05T18:12:51.991Z,3.03
2018-07-05T18:15:34.475Z,3.57
2018-07-05T18:18:14.120Z,3.00
2018-07-05T18:20:53.934Z,2.60
2018-07-05T18:23:27.595Z,3.23
2018-07-05T18:26:07.224Z,3.27
2018-07-05T18:28:46.867Z,2.80
2018-07-05T18:31:26.571Z,3.23
2018-07-05T18:34:06.217Z,2.53
2018-07-05T18:36:45.956Z,2.63
2018-07-05T18:39:26.462Z,2.50
2018-07-05T18:42:06.231Z,2.80
2018-07-05T18:44:45.850Z,3.13
2018-07-05T18:47:25.315Z,2.60
2018-07-05T18:50:04.920Z,2.93
2018-07-05T18:52:44.713Z,3.50
2018-07-05T18:55:24.434Z,2.60
2018-07-05T18:57:58.158Z,3.10
2018-07-05T19:00:32.910Z,2.60
2018-07-05T19:03:12.639Z,3.30
2018-07-05T19:05:52.336Z,2.80
2018-07-05T19:08:32.107Z,2.90
2018-07-05T19:11:05.759Z,3.20
2018-07-05T19:13:45.482Z,3.80
2018-07-05T19:16:25.081Z,3.13
2018-07-05T19:19:04.650Z,3.33
2018-07-05T19:21:44.417Z,4.07
2018-07-05T19:24:24.108Z,4.63
2018-07-05T19:27:04.684Z,4.20
2018-07-05T19:29:44.618Z,4.90
2018-07-05T19:32:26.191Z,4.30
2018-07-05T19:35:05.747Z,4.43
2018-07-05T19:37:45.368Z,4.70
2018-07-05T19:40:25.155Z,4.13
2018-07-05T19:43:04.674Z,4.37
2018-07-05T19:45:44.423Z,3.50
2018-07-05T19:48:24.017Z,4.43
2018-07-05T19:51:03.758Z,3.40
2018-07-05T19:53:43.490Z,3.40
2018-07-05T19:56:23.079Z,3.77
2018-07-05T19:59:02.534Z,3.50
2018-07-05T20:01:42.262Z,3.80
2018-07-05T20:04:23.007Z,3.67
2018-07-05T20:07:02.800Z,3.77
2018-07-05T20:09:42.340Z,3.50
2018-07-05T20:12:22.082Z,3.03
2018-07-05T20:15:01.646Z,3.27
2018-07-05T20:17:41.367Z,3.33
2018-07-05T20:20:21.963Z,3.17
2018-07-05T20:23:01.628Z,2.73
2018-07-05T20:25:41.381Z,3.20
2018-07-05T20:28:20.803Z,3.00
2018-07-05T20:31:00.259Z,2.60
2018-07-05T20:33:40.915Z,3.70
2018-07-05T20:36:20.680Z,2.83
2018-07-05T20:39:00.422Z,3.37
2018-07-05T20:41:40.437Z,3.40
2018-07-05T20:44:20.182Z,3.20
2018-07-05T20:47:00.274Z,3.00
2018-07-05T20:49:39.981Z,2.70
2018-07-05T20:52:19.642Z,3.07
2018-07-05T20:54:59.152Z,2.80
2018-07-05T20:57:38.855Z,3.10
2018-07-05T21:00:18.508Z,2.80
2018-07-05T21:02:58.113Z,2.80
2018-07-05T21:05:37.691Z,3.90
2018-07-05T21:08:17.427Z,2.83
2018-07-05T21:10:51.273Z,2.83
2018-07-05T21:13:30.869Z,2.60
2018-07-05T21:16:10.424Z,3.17
2018-07-05T21:18:50.327Z,3.37
2018-07-05T21:21:30.080Z,3.30
2018-07-05T21:24:09.750Z,3.23
2018-07-05T21:26:49.366Z,2.43
2018-07-05T21:29:29.079Z,2.90
2018-07-05T21:32:08.636Z,2.80
2018-07-05T21:34:48.349Z,2.93
2018-07-05T21:37:28.222Z,3.30
2018-07-05T21:40:08.242Z,2.80
2018-07-05T21:42:47.932Z,3.33
2018-07-05T21:45:27.740Z,2.70
2018-07-05T21:48:07.581Z,2.80
2018-07-05T21:50:47.506Z,2.97
2018-07-05T21:53:27.128Z,3.23
2018-07-05T21:56:06.859Z,3.30
2018-07-05T21:58:46.551Z,2.30
2018-07-05T22:01:26.139Z,3.00
2018-07-05T22:04:05.963Z,2.33
2018-07-05T22:06:45.755Z,2.73
2018-07-05T22:09:25.479Z,2.60
2018-07-05T22:12:05.256Z,3.00
2018-07-05T22:14:45.091Z,2.33
2018-07-05T22:17:30.144Z,2.10
2018-07-05T22:20:15.227Z,2.50
2018-07-05T22:23:00.303Z,2.90
2018-07-05T22:25:45.610Z,2.60
2018-07-05T22:28:30.662Z,3.40
2018-07-05T22:31:15.615Z,2.73
2018-07-05T22:33:55.310Z,3.50
2018-07-05T22:36:35.115Z,3.00
2018-07-05T22:39:14.648Z,3.70
2018-07-05T22:41:55.313Z,3.20
2018-07-05T22:44:34.814Z,3.10
2018-07-05T22:47:14.711Z,3.17
2018-07-05T22:49:54.383Z,3.07
2018-07-05T22:52:33.975Z,2.97
2018-07-05T22:55:13.470Z,3.70
2018-07-05T22:57:52.987Z,3.77
2018-07-05T23:00:32.843Z,3.77
2018-07-05T23:03:12.481Z,3.50
2018-07-05T23:05:52.067Z,3.90
2018-07-05T23:08:32.007Z,3.37
2018-07-05T23:11:11.687Z,3.90
2018-07-05T23:13:51.279Z,3.97
2018-07-05T23:16:30.994Z,3.33
2018-07-05T23:19:10.623Z,3.97
2018-07-05T23:21:50.387Z,3.23
2018-07-05T23:24:30.167Z,4.00
2018-07-05T23:27:09.910Z,3.70
2018-07-05T23:29:49.379Z,4.30
2018-07-05T23:32:29.131Z,3.83
2018-07-05T23:35:08.927Z,4.77
2018-07-05T23:37:42.638Z,4.80
2018-07-05T23:40:22.339Z,4.47
2018-07-05T23:43:02.109Z,4.47
2018-07-05T23:45:41.702Z,3.87
2018-07-05T23:48:21.218Z,4.07
2018-07-05T23:51:00.715Z,4.00
2018-07-05T23:53:40.373Z,4.53
2018-07-05T23:56:19.938Z,4.13
2018-07-05T23:58:59.592Z,4.60
